sensor_id;sensor_type;location;lat;lon;timestamp;pressure;altitude;pressure_sealevel;temperature;humidity
4392;BME280;2210;51.938;8.488;2024-03-02T00:03:24;99258.81;;;6.63;100.00
4392;BME280;2210;51.938;8.488;2024-03-02T00:07:24;99258.00;;;6.62;100.00
4392;BME280;2210;51.938;8.488;2024-03-02T00:11:25;99261.44;;;6.57;100.00
4392;BME280;2210;51.938;8.488;2024-03-02T00:15:53;99258.94;;;6.56;100.00
4392;BME280;2210;51.938;8.488;2024-03-02T00:19:57;99257.75;;;6.52;100.00
4392;BME280;2210;51.938;8.488;2024-03-02T00:23:58;99248.13;;;6.49;100.00
4392;BME280;2210;51.938;8.488;2024-03-02T00:28:05;99256.59;;;6.48;100.00
4392;BME280;2210;51.938;8.488;2024-03-02T00:32:19;99242.66;;;6.49;100.00
4392;BME280;2210;51.938;8.488;2024-03-02T00:36:32;99241.22;;;6.47;100.00
4392;BME280;2210;51.938;8.488;2024-03-02T00:40:33;99241.13;;;6.41;100.00
4392;BME280;2210;51.938;8.488;2024-03-02T00:44:36;99227.78;;;6.45;100.00
4392;BME280;2210;51.938;8.488;2024-03-02T00:48:54;99229.81;;;6.50;100.00
4392;BME280;2210;51.938;8.488;2024-03-02T00:52:55;99218.84;;;6.50;100.00
4392;BME280;2210;51.938;8.488;2024-03-02T00:57:05;99225.41;;;6.49;100.00
4392;BME280;2210;51.938;8.488;2024-03-02T01:01:05;99212.78;;;6.48;100.00
4392;BME280;2210;51.938;8.488;2024-03-02T01:05:07;99224.56;;;6.48;100.00
4392;BME280;2210;51.938;8.488;2024-03-02T01:09:14;99231.94;;;6.48;100.00
4392;BME280;2210;51.938;8.488;2024-03-02T01:13:14;99228.97;;;6.49;100.00
4392;BME280;2210;51.938;8.488;2024-03-02T01:17:20;99228.28;;;6.42;100.00
4392;BME280;2210;51.938;8.488;2024-03-02T01:21:21;99232.91;;;6.41;100.00
4392;BME280;2210;51.938;8.488;2024-03-02T01:25:21;99219.38;;;6.35;100.00
4392;BME280;2210;51.938;8.488;2024-03-02T01:29:24;99220.09;;;6.30;100.00
4392;BME280;2210;51.938;8.488;2024-03-02T01:33:24;99219.03;;;6.31;100.00
4392;BME280;2210;51.938;8.488;2024-03-02T01:37:25;99214.03;;;6.28;100.00
4392;BME280;2210;51.938;8.488;2024-03-02T01:41:25;99215.22;;;6.32;100.00
4392;BME280;2210;51.938;8.488;2024-03-02T01:45:28;99209.38;;;6.29;100.00
4392;BME280;2210;51.938;8.488;2024-03-02T01:49:29;99213.91;;;6.35;100.00
4392;BME280;2210;51.938;8.488;2024-03-02T01:53:29;99207.59;;;6.34;100.00
4392;BME280;2210;51.938;8.488;2024-03-02T01:57:29;99206.25;;;6.37;100.00
4392;BME280;2210;51.938;8.488;2024-03-02T02:01:32;99194.81;;;6.40;100.00
4392;BME280;2210;51.938;8.488;2024-03-02T02:05:33;99198.97;;;6.43;100.00
4392;BME280;2210;51.938;8.488;2024-03-02T02:09:35;99188.63;;;6.45;100.00
4392;BME280;2210;51.938;8.488;2024-03-02T02:13:35;99178.75;;;6.44;100.00
4392;BME280;2210;51.938;8.488;2024-03-02T02:17:41;99183.63;;;6.41;100.00
4392;BME280;2210;51.938;8.488;2024-03-02T02:21:42;99173.78;;;6.40;100.00
4392;BME280;2210;51.938;8.488;2024-03-02T02:25:43;99164.97;;;6.38;100.00
4392;BME280;2210;51.938;8.488;2024-03-02T02:29:43;99162.97;;;6.34;100.00
4392;BME280;2210;51.938;8.488;2024-03-02T02:33:43;99150.59;;;6.31;100.00
4392;BME280;2210;51.938;8.488;2024-03-02T02:37:45;99155.06;;;6.37;100.00
4392;BME280;2210;51.938;8.488;2024-03-02T02:41:46;99139.00;;;6.41;100.00
4392;BME280;2210;51.938;8.488;2024-03-02T02:45:46;99134.94;;;6.44;100.00
4392;BME280;2210;51.938;8.488;2024-03-02T02:49:50;99137.78;;;6.49;100.00
4392;BME280;2210;51.938;8.488;2024-03-02T02:53:50;99127.31;;;6.46;100.00
4392;BME280;2210;51.938;8.488;2024-03-02T02:57:51;99126.84;;;6.49;100.00
4392;BME280;2210;51.938;8.488;2024-03-02T03:01:51;99130.16;;;6.51;100.00
4392;BME280;2210;51.938;8.488;2024-03-02T03:05:57;99124.56;;;6.46;100.00
4392;BME280;2210;51.938;8.488;2024-03-02T03:09:57;99122.44;;;6.48;100.00
4392;BME280;2210;51.938;8.488;2024-03-02T03:13:58;99123.66;;;6.40;100.00
4392;BME280;2210;51.938;8.488;2024-03-02T03:18:00;99123.34;;;6.36;100.00
4392;BME280;2210;51.938;8.488;2024-03-02T03:22:00;99117.34;;;6.39;100.00
4392;BME280;2210;51.938;8.488;2024-03-02T03:26:00;99126.78;;;6.32;100.00
4392;BME280;2210;51.938;8.488;2024-03-02T03:30:01;99122.63;;;6.29;100.00
4392;BME280;2210;51.938;8.488;2024-03-02T03:34:04;99125.75;;;6.21;100.00
4392;BME280;2210;51.938;8.488;2024-03-02T03:38:04;99122.53;;;6.24;100.00
4392;BME280;2210;51.938;8.488;2024-03-02T03:42:05;99130.16;;;6.22;100.00
4392;BME280;2210;51.938;8.488;2024-03-02T03:46:05;99130.75;;;6.24;100.00
4392;BME280;2210;51.938;8.488;2024-03-02T03:50:06;99125.28;;;6.24;100.00
4392;BME280;2210;51.938;8.488;2024-03-02T03:54:07;99127.41;;;6.22;100.00
4392;BME280;2210;51.938;8.488;2024-03-02T03:58:07;99123.13;;;6.26;100.00
4392;BME280;2210;51.938;8.488;2024-03-02T04:02:13;99123.94;;;6.27;100.00
4392;BME280;2210;51.938;8.488;2024-03-02T04:06:14;99129.28;;;6.33;100.00
4392;BME280;2210;51.938;8.488;2024-03-02T04:10:16;99128.94;;;6.30;100.00
4392;BME280;2210;51.938;8.488;2024-03-02T04:14:17;99130.25;;;6.27;100.00
4392;BME280;2210;51.938;8.488;2024-03-02T04:18:17;99127.78;;;6.26;100.00
4392;BME280;2210;51.938;8.488;2024-03-02T04:22:18;99120.13;;;6.28;100.00
4392;BME280;2210;51.938;8.488;2024-03-02T04:26:18;99135.50;;;6.29;100.00
4392;BME280;2210;51.938;8.488;2024-03-02T04:30:22;99133.00;;;6.27;100.00
4392;BME280;2210;51.938;8.488;2024-03-02T04:34:22;99139.53;;;6.26;100.00
4392;BME280;2210;51.938;8.488;2024-03-02T04:38:22;99142.53;;;6.24;100.00
4392;BME280;2210;51.938;8.488;2024-03-02T04:42:23;99144.34;;;6.19;100.00
4392;BME280;2210;51.938;8.488;2024-03-02T04:46:24;99145.63;;;6.28;100.00
4392;BME280;2210;51.938;8.488;2024-03-02T04:50:30;99153.72;;;6.23;100.00
4392;BME280;2210;51.938;8.488;2024-03-02T04:54:31;99164.06;;;6.21;100.00
4392;BME280;2210;51.938;8.488;2024-03-02T04:58:31;99160.16;;;6.17;100.00
4392;BME280;2210;51.938;8.488;2024-03-02T05:02:31;99164.69;;;6.11;100.00
4392;BME280;2210;51.938;8.488;2024-03-02T05:06:31;99165.50;;;6.12;100.00
4392;BME280;2210;51.938;8.488;2024-03-02T05:10:35;99169.41;;;6.16;100.00
4392;BME280;2210;51.938;8.488;2024-03-02T05:14:36;99178.72;;;6.15;100.00
4392;BME280;2210;51.938;8.488;2024-03-02T05:18:38;99178.13;;;6.13;100.00
4392;BME280;2210;51.938;8.488;2024-03-02T05:22:38;99170.97;;;6.12;100.00
4392;BME280;2210;51.938;8.488;2024-03-02T05:26:39;99172.31;;;6.09;100.00
4392;BME280;2210;51.938;8.488;2024-03-02T05:30:42;99174.81;;;6.11;100.00
4392;BME280;2210;51.938;8.488;2024-03-02T05:34:45;99188.25;;;6.12;100.00
4392;BME280;2210;51.938;8.488;2024-03-02T05:38:46;99182.78;;;6.12;100.00
4392;BME280;2210;51.938;8.488;2024-03-02T05:42:46;99189.06;;;6.13;100.00
4392;BME280;2210;51.938;8.488;2024-03-02T05:46:50;99180.84;;;6.13;100.00
4392;BME280;2210;51.938;8.488;2024-03-02T05:50:53;99187.06;;;6.08;100.00
4392;BME280;2210;51.938;8.488;2024-03-02T05:54:53;99182.41;;;6.08;100.00
4392;BME280;2210;51.938;8.488;2024-03-02T05:58:54;99182.41;;;6.08;100.00
4392;BME280;2210;51.938;8.488;2024-03-02T06:03:15;99186.94;;;6.15;100.00
4392;BME280;2210;51.938;8.488;2024-03-02T06:07:16;99183.09;;;6.16;100.00
4392;BME280;2210;51.938;8.488;2024-03-02T06:11:16;99186.09;;;6.14;100.00
4392;BME280;2210;51.938;8.488;2024-03-02T06:15:16;99193.47;;;6.14;100.00
4392;BME280;2210;51.938;8.488;2024-03-02T06:19:17;99188.00;;;6.14;100.00
4392;BME280;2210;51.938;8.488;2024-03-02T06:23:18;99186.94;;;6.15;100.00
4392;BME280;2210;51.938;8.488;2024-03-02T06:27:18;99199.06;;;6.19;100.00
4392;BME280;2210;51.938;8.488;2024-03-02T06:31:19;99199.41;;;6.22;100.00
4392;BME280;2210;51.938;8.488;2024-03-02T06:35:19;99218.91;;;6.26;100.00
4392;BME280;2210;51.938;8.488;2024-03-02T06:39:19;99219.16;;;6.24;100.00
4392;BME280;2210;51.938;8.488;2024-03-02T06:43:22;99226.28;;;6.26;100.00
4392;BME280;2210;51.938;8.488;2024-03-02T06:47:23;99222.47;;;6.27;100.00
4392;BME280;2210;51.938;8.488;2024-03-02T06:51:23;99229.38;;;6.29;100.00
4392;BME280;2210;51.938;8.488;2024-03-02T06:55:24;99232.72;;;6.31;100.00
4392;BME280;2210;51.938;8.488;2024-03-02T06:59:24;99234.25;;;6.27;100.00
4392;BME280;2210;51.938;8.488;2024-03-02T07:03:27;99232.09;;;6.29;100.00
4392;BME280;2210;51.938;8.488;2024-03-02T07:07:27;99232.09;;;6.29;100.00
4392;BME280;2210;51.938;8.488;2024-03-02T07:11:28;99234.84;;;6.29;100.00
4392;BME280;2210;51.938;8.488;2024-03-02T07:15:28;99243.16;;;6.34;100.00
4392;BME280;2210;51.938;8.488;2024-03-02T07:19:28;99246.97;;;6.33;100.00
4392;BME280;2210;51.938;8.488;2024-03-02T07:23:28;99246.38;;;6.31;100.00
4392;BME280;2210;51.938;8.488;2024-03-02T07:27:30;99249.13;;;6.31;100.00
4392;BME280;2210;51.938;8.488;2024-03-02T07:31:31;99247.56;;;6.35;100.00
4392;BME280;2210;51.938;8.488;2024-03-02T07:35:37;99251.13;;;6.36;100.00
4392;BME280;2210;51.938;8.488;2024-03-02T07:39:37;99262.19;;;6.41;100.00
4392;BME280;2210;51.938;8.488;2024-03-02T07:43:38;99258.84;;;6.51;100.00
4392;BME280;2210;51.938;8.488;2024-03-02T07:47:39;99270.00;;;6.61;100.00
4392;BME280;2210;51.938;8.488;2024-03-02T07:51:39;99267.31;;;6.78;100.00
4392;BME280;2210;51.938;8.488;2024-03-02T07:55:39;99254.25;;;6.97;100.00
4392;BME280;2210;51.938;8.488;2024-03-02T07:59:40;99251.81;;;7.13;100.00
4392;BME280;2210;51.938;8.488;2024-03-02T08:03:43;99254.50;;;7.24;100.00
4392;BME280;2210;51.938;8.488;2024-03-02T08:07:48;99267.16;;;7.42;100.00
4392;BME280;2210;51.938;8.488;2024-03-02T08:11:52;99276.13;;;7.55;100.00
4392;BME280;2210;51.938;8.488;2024-03-02T08:15:52;99278.28;;;7.70;100.00
4392;BME280;2210;51.938;8.488;2024-03-02T08:19:53;99272.56;;;7.88;100.00
4392;BME280;2210;51.938;8.488;2024-03-02T08:23:53;99264.28;;;8.05;100.00
4392;BME280;2210;51.938;8.488;2024-03-02T08:27:54;99282.72;;;8.27;99.67
4392;BME280;2210;51.938;8.488;2024-03-02T08:31:54;99277.47;;;8.42;98.17
4392;BME280;2210;51.938;8.488;2024-03-02T08:35:55;99279.91;;;8.61;97.25
4392;BME280;2210;51.938;8.488;2024-03-02T08:39:56;99273.50;;;8.77;95.18
4392;BME280;2210;51.938;8.488;2024-03-02T08:43:56;99275.66;;;8.98;92.46
4392;BME280;2210;51.938;8.488;2024-03-02T08:47:56;99270.91;;;9.15;91.31
4392;BME280;2210;51.938;8.488;2024-03-02T08:51:56;99274.03;;;9.24;90.82
4392;BME280;2210;51.938;8.488;2024-03-02T08:55:57;99284.09;;;9.40;88.49
4392;BME280;2210;51.938;8.488;2024-03-02T08:59:57;99280.19;;;9.64;88.14
4392;BME280;2210;51.938;8.488;2024-03-02T09:03:57;99288.16;;;9.65;87.61
4392;BME280;2210;51.938;8.488;2024-03-02T09:07:58;99281.81;;;9.97;86.90
4392;BME280;2210;51.938;8.488;2024-03-02T09:11:58;99274.13;;;9.99;85.27
4392;BME280;2210;51.938;8.488;2024-03-02T09:15:58;99275.31;;;10.13;84.18
4392;BME280;2210;51.938;8.488;2024-03-02T09:19:59;99272.88;;;10.22;82.09
4392;BME280;2210;51.938;8.488;2024-03-02T09:23:59;99265.56;;;10.38;82.38
4392;BME280;2210;51.938;8.488;2024-03-02T09:27:59;99269.25;;;10.54;81.02
4392;BME280;2210;51.938;8.488;2024-03-02T09:31:59;99269.00;;;10.61;79.38
4392;BME280;2210;51.938;8.488;2024-03-02T09:35:59;99272.97;;;10.86;79.45
4392;BME280;2210;51.938;8.488;2024-03-02T09:40:00;99277.38;;;10.92;77.87
4392;BME280;2210;51.938;8.488;2024-03-02T09:44:02;99269.06;;;10.76;78.29
4392;BME280;2210;51.938;8.488;2024-03-02T09:48:02;99273.41;;;10.67;77.98
4392;BME280;2210;51.938;8.488;2024-03-02T09:52:02;99279.00;;;10.77;78.23
4392;BME280;2210;51.938;8.488;2024-03-02T09:56:03;99278.16;;;10.72;77.84
4392;BME280;2210;51.938;8.488;2024-03-02T10:00:05;99271.03;;;10.91;77.27
4392;BME280;2210;51.938;8.488;2024-03-02T10:04:05;99277.38;;;10.87;77.79
4392;BME280;2210;51.938;8.488;2024-03-02T10:08:06;99272.72;;;10.98;77.64
4392;BME280;2210;51.938;8.488;2024-03-02T10:12:08;99268.66;;;11.26;77.06
4392;BME280;2210;51.938;8.488;2024-03-02T10:16:14;99267.00;;;11.30;76.33
4392;BME280;2210;51.938;8.488;2024-03-02T10:20:27;99281.38;;;11.37;75.50
4392;BME280;2210;51.938;8.488;2024-03-02T10:24:40;99273.94;;;11.53;75.49
4392;BME280;2210;51.938;8.488;2024-03-02T10:28:46;99273.09;;;11.63;74.16
4392;BME280;2210;51.938;8.488;2024-03-02T10:32:51;99269.22;;;11.69;72.73
4392;BME280;2210;51.938;8.488;2024-03-02T10:36:52;99267.03;;;11.81;73.50
4392;BME280;2210;51.938;8.488;2024-03-02T10:40:53;99264.25;;;11.92;74.06
4392;BME280;2210;51.938;8.488;2024-03-02T10:44:55;99263.97;;;11.93;72.18
4392;BME280;2210;51.938;8.488;2024-03-02T10:48:59;99246.34;;;12.00;72.46
4392;BME280;2210;51.938;8.488;2024-03-02T10:53:00;99236.63;;;12.12;72.16
4392;BME280;2210;51.938;8.488;2024-03-02T10:57:02;99237.69;;;12.37;71.51
4392;BME280;2210;51.938;8.488;2024-03-02T11:01:11;99242.66;;;12.40;69.78
4392;BME280;2210;51.938;8.488;2024-03-02T11:05:13;99242.34;;;12.52;69.25
4392;BME280;2210;51.938;8.488;2024-03-02T11:09:21;99243.44;;;12.56;70.03
4392;BME280;2210;51.938;8.488;2024-03-02T11:13:27;99239.81;;;12.61;69.89
4392;BME280;2210;51.938;8.488;2024-03-02T11:17:31;99241.16;;;12.69;69.11
4392;BME280;2210;51.938;8.488;2024-03-02T11:21:34;99245.84;;;12.73;69.08
4392;BME280;2210;51.938;8.488;2024-03-02T11:25:35;99246.69;;;12.74;69.38
4392;BME280;2210;51.938;8.488;2024-03-02T11:33:36;99247.22;;;12.71;69.66
4392;BME280;2210;51.938;8.488;2024-03-02T11:37:36;99240.28;;;12.84;69.03
4392;BME280;2210;51.938;8.488;2024-03-02T11:41:37;99244.91;;;12.93;69.88
4392;BME280;2210;51.938;8.488;2024-03-02T11:45:37;99246.34;;;13.30;67.66
4392;BME280;2210;51.938;8.488;2024-03-02T11:49:46;99241.72;;;13.15;68.44
4392;BME280;2210;51.938;8.488;2024-03-02T11:53:52;99238.88;;;13.31;67.71
4392;BME280;2210;51.938;8.488;2024-03-02T11:57:54;99238.50;;;13.48;67.31
4392;BME280;2210;51.938;8.488;2024-03-02T12:01:54;99226.94;;;13.41;67.10
4392;BME280;2210;51.938;8.488;2024-03-02T12:05:55;99219.81;;;13.29;66.24
4392;BME280;2210;51.938;8.488;2024-03-02T12:10:00;99215.91;;;13.30;67.45
4392;BME280;2210;51.938;8.488;2024-03-02T12:14:01;99219.38;;;13.52;67.40
4392;BME280;2210;51.938;8.488;2024-03-02T12:18:01;99224.69;;;13.43;66.71
4392;BME280;2210;51.938;8.488;2024-03-02T12:22:08;99226.03;;;13.51;66.72
4392;BME280;2210;51.938;8.488;2024-03-02T12:26:08;99212.00;;;13.42;65.42
4392;BME280;2210;51.938;8.488;2024-03-02T12:30:12;99211.41;;;13.45;65.99
4392;BME280;2210;51.938;8.488;2024-03-02T12:34:15;99209.34;;;13.61;65.55
4392;BME280;2210;51.938;8.488;2024-03-02T12:38:16;99209.44;;;13.45;64.64
4392;BME280;2210;51.938;8.488;2024-03-02T12:42:16;99210.47;;;13.55;65.95
4392;BME280;2210;51.938;8.488;2024-03-02T12:46:16;99212.72;;;13.53;65.28
4392;BME280;2210;51.938;8.488;2024-03-02T12:50:17;99212.00;;;13.42;66.11
4392;BME280;2210;51.938;8.488;2024-03-02T12:54:17;99204.75;;;13.46;65.44
4392;BME280;2210;51.938;8.488;2024-03-02T12:58:19;99201.09;;;13.51;65.91
4392;BME280;2210;51.938;8.488;2024-03-02T13:02:21;99203.28;;;13.54;65.25
4392;BME280;2210;51.938;8.488;2024-03-02T13:06:21;99203.34;;;13.48;64.84
4392;BME280;2210;51.938;8.488;2024-03-02T13:10:22;99196.94;;;13.53;65.01
4392;BME280;2210;51.938;8.488;2024-03-02T13:14:22;99198.78;;;13.63;65.10
4392;BME280;2210;51.938;8.488;2024-03-02T13:18:25;99189.28;;;13.74;64.65
4392;BME280;2210;51.938;8.488;2024-03-02T13:22:25;99191.09;;;13.55;64.99
4392;BME280;2210;51.938;8.488;2024-03-02T13:26:26;99180.88;;;13.55;65.13
4392;BME280;2210;51.938;8.488;2024-03-02T13:30:26;99186.66;;;13.54;65.81
4392;BME280;2210;51.938;8.488;2024-03-02T13:34:26;99169.00;;;13.49;65.85
4392;BME280;2210;51.938;8.488;2024-03-02T13:38:26;99180.06;;;13.49;65.71
4392;BME280;2210;51.938;8.488;2024-03-02T13:42:27;99176.63;;;13.63;64.63
4392;BME280;2210;51.938;8.488;2024-03-02T13:46:30;99178.88;;;13.61;65.15
4392;BME280;2210;51.938;8.488;2024-03-02T13:50:30;99177.69;;;13.38;64.72
4392;BME280;2210;51.938;8.488;2024-03-02T13:54:30;99175.69;;;13.43;64.45
4392;BME280;2210;51.938;8.488;2024-03-02T13:58:31;99173.84;;;13.63;64.00
4392;BME280;2210;51.938;8.488;2024-03-02T14:02:32;99177.56;;;13.53;63.78
4392;BME280;2210;51.938;8.488;2024-03-02T14:06:32;99164.81;;;13.52;63.44
4392;BME280;2210;51.938;8.488;2024-03-02T14:10:32;99168.34;;;13.58;64.27
4392;BME280;2210;51.938;8.488;2024-03-02T14:14:32;99160.16;;;13.47;64.20
4392;BME280;2210;51.938;8.488;2024-03-02T14:18:33;99160.97;;;13.48;64.15
4392;BME280;2210;51.938;8.488;2024-03-02T14:22:33;99155.22;;;13.44;63.75
4392;BME280;2210;51.938;8.488;2024-03-02T14:26:34;99160.19;;;13.42;63.94
4392;BME280;2210;51.938;8.488;2024-03-02T14:30:35;99154.69;;;13.37;63.91
4392;BME280;2210;51.938;8.488;2024-03-02T14:34:35;99150.88;;;13.28;64.54
4392;BME280;2210;51.938;8.488;2024-03-02T14:38:35;99146.19;;;13.28;64.40
4392;BME280;2210;51.938;8.488;2024-03-02T14:42:35;99138.72;;;13.24;64.72
4392;BME280;2210;51.938;8.488;2024-03-02T14:46:36;99143.94;;;13.30;64.38
4392;BME280;2210;51.938;8.488;2024-03-02T14:50:36;99145.91;;;13.25;65.08
4392;BME280;2210;51.938;8.488;2024-03-02T14:54:36;99138.06;;;13.42;65.12
4392;BME280;2210;51.938;8.488;2024-03-02T14:58:37;99137.53;;;13.35;63.98
4392;BME280;2210;51.938;8.488;2024-03-02T15:02:38;99138.38;;;13.36;63.54
4392;BME280;2210;51.938;8.488;2024-03-02T15:06:38;99140.88;;;13.32;63.79
4392;BME280;2210;51.938;8.488;2024-03-02T15:10:38;99136.75;;;13.29;64.65
4392;BME280;2210;51.938;8.488;2024-03-02T15:14:39;99141.41;;;13.34;63.86
4392;BME280;2210;51.938;8.488;2024-03-02T15:18:45;99129.78;;;13.32;64.11
4392;BME280;2210;51.938;8.488;2024-03-02T15:22:46;99135.34;;;13.32;64.63
4392;BME280;2210;51.938;8.488;2024-03-02T15:26:46;99136.50;;;13.26;64.54
4392;BME280;2210;51.938;8.488;2024-03-02T15:30:46;99130.38;;;13.29;64.21
4392;BME280;2210;51.938;8.488;2024-03-02T15:34:47;99135.41;;;13.27;63.50
4392;BME280;2210;51.938;8.488;2024-03-02T15:38:47;99133.28;;;13.13;64.02
4392;BME280;2210;51.938;8.488;2024-03-02T15:42:48;99133.00;;;13.15;63.11
4392;BME280;2210;51.938;8.488;2024-03-02T15:46:48;99128.59;;;13.09;63.29
4392;BME280;2210;51.938;8.488;2024-03-02T15:50:49;99136.22;;;12.93;63.93
4392;BME280;2210;51.938;8.488;2024-03-02T15:54:50;99138.97;;;12.93;63.72
4392;BME280;2210;51.938;8.488;2024-03-02T15:58:50;99139.59;;;12.85;63.57
4392;BME280;2210;51.938;8.488;2024-03-02T16:02:51;99146.00;;;12.75;64.04
4392;BME280;2210;51.938;8.488;2024-03-02T16:06:51;99139.66;;;12.69;64.18
4392;BME280;2210;51.938;8.488;2024-03-02T16:10:51;99134.47;;;12.57;64.36
4392;BME280;2210;51.938;8.488;2024-03-02T16:14:53;99136.16;;;12.53;64.39
4392;BME280;2210;51.938;8.488;2024-03-02T16:18:53;99135.94;;;12.50;64.74
4392;BME280;2210;51.938;8.488;2024-03-02T16:22:54;99145.06;;;12.40;65.03
4392;BME280;2210;51.938;8.488;2024-03-02T16:26:54;99146.75;;;12.36;65.43
4392;BME280;2210;51.938;8.488;2024-03-02T16:30:55;99151.25;;;12.26;65.89
4392;BME280;2210;51.938;8.488;2024-03-02T16:34:55;99152.06;;;12.22;66.30
4392;BME280;2210;51.938;8.488;2024-03-02T16:38:55;99151.56;;;12.09;66.62
4392;BME280;2210;51.938;8.488;2024-03-02T16:42:55;99147.69;;;12.16;66.46
4392;BME280;2210;51.938;8.488;2024-03-02T16:46:56;99152.41;;;12.05;66.56
4392;BME280;2210;51.938;8.488;2024-03-02T16:50:57;99162.91;;;12.03;66.40
4392;BME280;2210;51.938;8.488;2024-03-02T16:54:57;99159.03;;;11.93;66.83
4392;BME280;2210;51.938;8.488;2024-03-02T16:58:57;99163.75;;;11.82;67.51
4392;BME280;2210;51.938;8.488;2024-03-02T17:02:58;99171.50;;;11.70;67.96
4392;BME280;2210;51.938;8.488;2024-03-02T17:06:58;99173.16;;;11.66;68.28
4392;BME280;2210;51.938;8.488;2024-03-02T17:10:58;99162.69;;;11.63;68.35
4392;BME280;2210;51.938;8.488;2024-03-02T17:14:58;99170.16;;;11.57;68.78
4392;BME280;2210;51.938;8.488;2024-03-02T17:18:59;99173.72;;;11.53;68.80
4392;BME280;2210;51.938;8.488;2024-03-02T17:22:59;99179.81;;;11.39;69.57
4392;BME280;2210;51.938;8.488;2024-03-02T17:26:59;99182.56;;;11.39;69.00
4392;BME280;2210;51.938;8.488;2024-03-02T17:31:03;99184.25;;;11.30;69.86
4392;BME280;2210;51.938;8.488;2024-03-02T17:35:06;99184.78;;;11.22;69.85
4392;BME280;2210;51.938;8.488;2024-03-02T17:39:13;99194.72;;;11.12;69.99
4392;BME280;2210;51.938;8.488;2024-03-02T17:43:16;99190.53;;;11.00;70.28
4392;BME280;2210;51.938;8.488;2024-03-02T17:47:16;99195.78;;;11.01;70.42
4392;BME280;2210;51.938;8.488;2024-03-02T17:51:17;99196.31;;;10.98;70.09
4392;BME280;2210;51.938;8.488;2024-03-02T17:55:17;99200.72;;;10.94;69.97
4392;BME280;2210;51.938;8.488;2024-03-02T17:59:17;99203.72;;;10.82;70.76
4392;BME280;2210;51.938;8.488;2024-03-02T18:03:18;99198.78;;;10.79;70.63
4392;BME280;2210;51.938;8.488;2024-03-02T18:07:19;99195.69;;;10.60;72.07
4392;BME280;2210;51.938;8.488;2024-03-02T18:11:19;99190.22;;;10.70;71.73
4392;BME280;2210;51.938;8.488;2024-03-02T18:15:20;99189.06;;;10.56;71.69
4392;BME280;2210;51.938;8.488;2024-03-02T18:19:20;99188.50;;;10.49;72.00
4392;BME280;2210;51.938;8.488;2024-03-02T18:23:20;99186.03;;;10.57;71.17
4392;BME280;2210;51.938;8.488;2024-03-02T18:27:20;99192.94;;;10.60;72.05
4392;BME280;2210;51.938;8.488;2024-03-02T18:31:21;99194.97;;;10.27;73.30
4392;BME280;2210;51.938;8.488;2024-03-02T18:35:22;99194.97;;;10.32;72.99
4392;BME280;2210;51.938;8.488;2024-03-02T18:39:22;99195.22;;;10.25;73.25
4392;BME280;2210;51.938;8.488;2024-03-02T18:43:22;99196.66;;;10.33;72.71
4392;BME280;2210;51.938;8.488;2024-03-02T18:47:23;99196.69;;;10.38;72.50
4392;BME280;2210;51.938;8.488;2024-03-02T18:51:24;99203.59;;;10.41;72.38
4392;BME280;2210;51.938;8.488;2024-03-02T18:55:25;99200.75;;;10.30;72.67
4392;BME280;2210;51.938;8.488;2024-03-02T18:59:25;99199.59;;;10.21;73.66
4392;BME280;2210;51.938;8.488;2024-03-02T19:03:26;99201.47;;;10.10;73.96
4392;BME280;2210;51.938;8.488;2024-03-02T19:07:27;99199.03;;;10.14;73.88
4392;BME280;2210;51.938;8.488;2024-03-02T19:11:27;99192.41;;;10.10;74.28
4392;BME280;2210;51.938;8.488;2024-03-02T19:15:27;99196.56;;;10.12;74.09
4392;BME280;2210;51.938;8.488;2024-03-02T19:19:30;99192.41;;;10.10;73.81
4392;BME280;2210;51.938;8.488;2024-03-02T19:23:34;99194.97;;;10.32;73.38
4392;BME280;2210;51.938;8.488;2024-03-02T19:27:34;99191.75;;;10.35;73.00
4392;BME280;2210;51.938;8.488;2024-03-02T19:31:34;99185.06;;;10.26;73.26
4392;BME280;2210;51.938;8.488;2024-03-02T19:35:41;99192.75;;;10.24;73.39
4392;BME280;2210;51.938;8.488;2024-03-02T19:39:41;99198.25;;;10.19;73.37
4392;BME280;2210;51.938;8.488;2024-03-02T19:43:45;99201.25;;;10.12;73.50
4392;BME280;2210;51.938;8.488;2024-03-02T19:47:45;99206.09;;;10.00;73.86
4392;BME280;2210;51.938;8.488;2024-03-02T19:51:45;99209.44;;;10.02;74.00
4392;BME280;2210;51.938;8.488;2024-03-02T19:55:45;99206.94;;;10.00;74.19
4392;BME280;2210;51.938;8.488;2024-03-02T19:59:46;99199.22;;;10.02;73.46
4392;BME280;2210;51.938;8.488;2024-03-02T20:03:47;99202.28;;;10.06;73.58
4392;BME280;2210;51.938;8.488;2024-03-02T20:07:50;99200.94;;;10.08;73.18
4392;BME280;2210;51.938;8.488;2024-03-02T20:11:50;99186.63;;;10.11;72.84
4392;BME280;2210;51.938;8.488;2024-03-02T20:15:51;99188.66;;;10.32;72.57
4392;BME280;2210;51.938;8.488;2024-03-02T20:19:55;99176.81;;;10.31;72.48
4392;BME280;2210;51.938;8.488;2024-03-02T20:23:55;99181.19;;;10.32;72.70
4392;BME280;2210;51.938;8.488;2024-03-02T20:27:55;99176.50;;;10.27;72.54
4392;BME280;2210;51.938;8.488;2024-03-02T20:32:02;99177.34;;;10.28;73.13
4392;BME280;2210;51.938;8.488;2024-03-02T20:36:02;99180.88;;;10.18;74.25
4392;BME280;2210;51.938;8.488;2024-03-02T20:40:03;99169.06;;;10.23;74.50
4392;BME280;2210;51.938;8.488;2024-03-02T20:44:03;99179.47;;;10.16;75.54
4392;BME280;2210;51.938;8.488;2024-03-02T20:48:07;99170.69;;;10.13;76.16
4392;BME280;2210;51.938;8.488;2024-03-02T20:52:14;99170.06;;;10.06;76.67
4392;BME280;2210;51.938;8.488;2024-03-02T20:56:14;99163.47;;;10.07;76.93
4392;BME280;2210;51.938;8.488;2024-03-02T21:00:20;99154.63;;;10.00;77.80
4392;BME280;2210;51.938;8.488;2024-03-02T21:04:20;99157.91;;;9.92;78.97
4392;BME280;2210;51.938;8.488;2024-03-02T21:08:21;99158.47;;;9.99;79.36
4392;BME280;2210;51.938;8.488;2024-03-02T21:12:21;99159.59;;;10.03;79.66
4392;BME280;2210;51.938;8.488;2024-03-02T21:16:21;99159.06;;;10.01;79.96
4392;BME280;2210;51.938;8.488;2024-03-02T21:20:21;99159.06;;;10.01;80.74
4392;BME280;2210;51.938;8.488;2024-03-02T21:24:22;99155.19;;;9.97;81.32
4392;BME280;2210;51.938;8.488;2024-03-02T21:28:22;99145.78;;;9.98;81.97
4392;BME280;2210;51.938;8.488;2024-03-02T21:32:22;99150.22;;;9.99;81.83
4392;BME280;2210;51.938;8.488;2024-03-02T21:36:22;99147.97;;;9.91;82.62
4392;BME280;2210;51.938;8.488;2024-03-02T21:40:23;99151.31;;;9.98;82.31
4392;BME280;2210;51.938;8.488;2024-03-02T21:44:23;99152.44;;;10.02;82.31
4392;BME280;2210;51.938;8.488;2024-03-02T21:48:23;99145.78;;;9.98;82.48
4392;BME280;2210;51.938;8.488;2024-03-02T21:52:25;99146.91;;;9.97;82.99
4392;BME280;2210;51.938;8.488;2024-03-02T21:56:25;99138.66;;;9.97;82.95
4392;BME280;2210;51.938;8.488;2024-03-02T22:00:26;99148.56;;;9.93;83.04